createdAt,value
2022-10-01T00:03:43.063Z,3.40
2022-10-01T00:08:08.289Z,3.53
2022-10-01T00:12:35.086Z,3.20
2022-10-01T00:17:00.419Z,3.40
2022-10-01T00:21:32.221Z,3.63
2022-10-01T00:26:19.345Z,3.83
2022-10-01T00:30:48.109Z,3.77
2022-10-01T00:35:14.484Z,3.87
2022-10-01T00:39:39.683Z,3.23
2022-10-01T00:44:35.411Z,3.17
2022-10-01T00:49:15.120Z,2.80
2022-10-01T00:53:41.584Z,3.07
2022-10-01T00:58:09.465Z,2.97
2022-10-01T01:02:34.735Z,2.90
2022-10-01T01:07:03.061Z,3.47
2022-10-01T01:12:12.504Z,2.70
2022-10-01T01:16:49.033Z,2.70
2022-10-01T09:43:44.916Z,2.20
2022-10-01T09:48:41.600Z,2.10
2022-10-01T09:53:17.763Z,1.90
2022-10-01T09:58:01.417Z,2.27
2022-10-01T10:02:32.879Z,2.13
2022-10-01T10:07:05.103Z,1.87
2022-10-01T10:11:32.900Z,1.60
2022-10-01T10:15:59.997Z,1.93
2022-10-01T10:20:40.492Z,1.87
2022-10-01T10:25:21.522Z,1.40
2022-10-01T11:06:14.848Z,2.27
2022-10-01T11:11:35.643Z,2.13
2022-10-01T11:16:37.017Z,2.67
2022-10-01T11:22:04.043Z,2.90
2022-10-01T11:26:38.841Z,2.90
2022-10-01T11:31:31.866Z,3.63
2022-10-01T11:36:07.510Z,3.80
2022-10-01T11:40:41.867Z,4.20
2022-10-01T11:45:17.535Z,5.60
2022-10-01T11:49:56.242Z,4.70
2022-10-01T11:54:26.479Z,5.10
2022-10-01T11:59:17.483Z,5.50
2022-10-01T12:03:54.705Z,4.90
2022-10-01T12:08:30.231Z,4.70
2022-10-01T12:13:05.246Z,5.17
2022-10-01T12:17:40.164Z,5.50
2022-10-01T12:22:15.601Z,5.10
2022-10-01T12:27:00.398Z,4.20
2022-10-01T12:36:14.694Z,3.70
2022-10-01T12:40:50.936Z,2.77
2022-10-01T12:46:03.502Z,5.07
2022-10-01T12:51:06.833Z,7.80
2022-10-01T13:23:39.357Z,2.20
2022-10-01T13:28:16.857Z,2.13
2022-10-01T13:33:05.282Z,1.87
2022-10-01T13:37:30.446Z,1.90
2022-10-01T13:46:26.871Z,1.83
2022-10-01T13:51:04.246Z,1.73
2022-10-01T13:55:31.928Z,2.10
2022-10-01T14:00:13.269Z,1.57
2022-10-01T18:43:56.537Z,2.10
2022-10-01T18:48:51.965Z,2.13
2022-10-01T18:53:52.717Z,2.43
2022-10-01T18:59:00.595Z,2.70
2022-10-01T19:03:50.663Z,2.90
2022-10-01T19:08:49.272Z,3.23
2022-10-01T19:13:23.990Z,3.07
2022-10-01T19:18:44.652Z,2.77
2022-10-01T19:23:13.067Z,2.80
2022-10-01T19:27:44.023Z,3.33
2022-10-01T19:32:25.520Z,3.20
2022-10-01T19:37:02.271Z,3.47
2022-10-01T19:41:44.926Z,3.40
2022-10-01T19:46:16.507Z,3.43
2022-10-01T19:50:50.641Z,3.63
2022-10-01T19:55:19.468Z,2.80
2022-10-01T19:59:44.779Z,2.77
2022-10-01T20:04:40.885Z,2.80
2022-10-01T21:42:15.949Z,2.10
2022-10-01T21:47:44.922Z,1.60
2022-10-01T21:52:16.643Z,1.70
2022-10-01T21:57:16.519Z,1.57
2022-10-01T22:02:05.202Z,1.73
2022-10-01T22:06:40.283Z,1.67
2022-10-01T22:11:18.745Z,1.47
2022-10-01T22:15:45.729Z,1.53
2022-10-01T22:20:12.423Z,1.70
2022-10-01T22:24:47.182Z,1.67
2022-10-01T22:29:20.720Z,1.30
2022-10-01T22:34:02.394Z,1.60
2022-10-01T22:39:00.331Z,1.33
2022-10-01T22:43:25.534Z,1.80
2022-10-01T22:48:07.597Z,1.53
2022-10-01T22:53:22.889Z,1.80
2022-10-01T22:58:32.822Z,1.30
2022-10-01T23:03:28.670Z,1.87
2022-10-01T23:08:28.374Z,1.63
2022-10-01T23:13:35.250Z,1.60
2022-10-01T23:18:22.456Z,2.40
2022-10-01T23:23:14.877Z,1.30
2022-10-01T23:27:54.993Z,1.80
2022-10-01T23:32:53.848Z,2.90
2022-10-01T23:37:43.829Z,1.90
2022-10-01T23:42:37.737Z,1.70
2022-10-01T23:47:09.957Z,1.67
2022-10-01T23:51:45.773Z,1.47
2022-10-01T23:56:49.191Z,1.90
